createdAt,value
2018-03-24T00:01:46.172Z,81.16
2018-03-24T00:04:19.773Z,81.32
2018-03-24T00:06:52.884Z,81.43
2018-03-24T00:09:27.933Z,81.52
2018-03-24T00:12:01.557Z,81.38
2018-03-24T00:14:34.737Z,81.29
2018-03-24T00:17:09.254Z,81.34
2018-03-24T00:19:42.880Z,81.40
2018-03-24T00:22:15.961Z,81.35
2018-03-24T00:24:51.957Z,81.31
2018-03-24T00:27:26.268Z,81.50
2018-03-24T00:29:59.421Z,81.56
2018-03-24T00:32:32.664Z,81.50
2018-03-24T00:35:06.443Z,81.46
2018-03-24T00:37:39.374Z,81.44
2018-03-24T00:40:13.548Z,81.42
2018-03-24T00:42:47.466Z,81.60
2018-03-24T00:45:20.858Z,81.34
2018-03-24T00:47:54.430Z,81.49
2018-03-24T00:50:27.967Z,81.65
2018-03-24T00:53:01.144Z,81.63
2018-03-24T00:55:34.482Z,81.79
2018-03-24T00:58:07.911Z,81.58
2018-03-24T01:00:41.166Z,81.70
2018-03-24T01:03:14.520Z,81.53
2018-03-24T01:05:48.385Z,81.64
2018-03-24T01:08:21.628Z,81.77
2018-03-24T01:10:54.764Z,81.53
2018-03-24T01:13:29.608Z,81.31
2018-03-24T01:16:02.621Z,81.35
2018-03-24T01:18:36.652Z,81.23
2018-03-24T01:21:11.675Z,81.27
2018-03-24T01:23:44.760Z,81.51
2018-03-24T01:26:17.754Z,81.69
2018-03-24T01:28:51.128Z,82.10
2018-03-24T01:31:24.174Z,82.31
2018-03-24T01:33:57.817Z,82.43
2018-03-24T01:36:31.167Z,82.75
2018-03-24T01:39:04.413Z,83.01
2018-03-24T01:41:37.762Z,83.39
2018-03-24T01:44:11.246Z,83.54
2018-03-24T01:46:44.420Z,83.65
2018-03-24T01:49:18.481Z,83.88
2018-03-24T01:51:52.008Z,84.15
2018-03-24T01:54:25.784Z,84.23
2018-03-24T01:56:59.648Z,84.34
2018-03-24T01:59:32.671Z,84.51
2018-03-24T02:02:06.610Z,84.58
2018-03-24T02:04:40.209Z,84.44
2018-03-24T02:07:13.214Z,84.23
2018-03-24T02:09:47.332Z,84.29
2018-03-24T02:12:20.763Z,83.95
2018-03-24T02:14:54.085Z,84.57
2018-03-24T02:17:27.259Z,84.36
2018-03-24T02:20:03.325Z,83.87
2018-03-24T02:22:37.068Z,84.10
2018-03-24T02:25:10.166Z,83.59
2018-03-24T02:27:43.484Z,83.58
2018-03-24T02:30:16.689Z,84.10
2018-03-24T02:32:50.049Z,83.99
2018-03-24T02:35:24.008Z,83.87
2018-03-24T02:37:57.099Z,83.62
2018-03-24T02:40:30.424Z,83.23
2018-03-24T02:43:04.720Z,83.30
2018-03-24T02:45:37.763Z,83.48
2018-03-24T02:48:11.521Z,83.74
2018-03-24T02:50:45.287Z,84.16
2018-03-24T02:53:18.440Z,84.33
2018-03-24T02:55:51.855Z,84.33
2018-03-24T02:58:25.741Z,84.50
2018-03-24T03:00:58.821Z,84.63
2018-03-24T03:03:32.338Z,84.89
2018-03-24T03:06:06.523Z,84.97
2018-03-24T03:08:41.409Z,84.92
2018-03-24T03:11:14.860Z,84.79
2018-03-24T03:13:49.280Z,84.77
2018-03-24T03:16:22.676Z,85.05
2018-03-24T03:18:55.950Z,85.31
2018-03-24T03:21:34.641Z,85.55
2018-03-24T03:24:09.089Z,85.83
2018-03-24T03:26:43.872Z,86.23
2018-03-24T03:29:16.954Z,86.83
2018-03-24T03:31:50.394Z,87.33
2018-03-24T03:34:24.653Z,87.21
2018-03-24T03:36:59.112Z,87.11
2018-03-24T03:39:34.059Z,87.40
2018-03-24T03:42:07.220Z,87.76
2018-03-24T03:44:40.557Z,88.03
2018-03-24T03:47:13.988Z,88.23
2018-03-24T03:49:47.032Z,88.42
2018-03-24T03:52:20.628Z,88.66
2018-03-24T03:54:54.970Z,88.81
2018-03-24T03:57:28.906Z,88.96
2018-03-24T04:00:03.381Z,89.13
2018-03-24T04:02:38.269Z,89.24
2018-03-24T04:05:11.866Z,89.51
2018-03-24T04:07:44.970Z,89.57
2018-03-24T04:10:19.328Z,89.65
2018-03-24T04:12:52.940Z,89.69
2018-03-24T04:15:26.264Z,89.70
2018-03-24T04:17:59.594Z,89.66
2018-03-24T04:20:33.257Z,89.75
2018-03-24T04:23:06.868Z,89.84
2018-03-24T04:25:40.359Z,89.73
2018-03-24T04:28:14.218Z,89.88
2018-03-24T04:30:47.598Z,90.00
2018-03-24T04:33:21.743Z,90.08
2018-03-24T04:35:55.947Z,90.15
2018-03-24T04:38:29.204Z,90.03
2018-03-24T04:41:02.856Z,89.84
2018-03-24T04:43:36.356Z,89.75
2018-03-24T04:46:09.663Z,89.82
2018-03-24T04:48:42.899Z,89.91
2018-03-24T04:51:16.369Z,89.82
2018-03-24T04:53:50.361Z,89.76
2018-03-24T04:56:24.106Z,89.84
2018-03-24T04:58:57.598Z,89.96
2018-03-24T05:01:30.797Z,89.93
2018-03-24T05:04:04.749Z,89.71
2018-03-24T05:06:37.897Z,89.67
2018-03-24T05:09:11.378Z,89.70
2018-03-24T05:11:44.407Z,89.82
2018-03-24T05:14:17.899Z,89.90
2018-03-24T05:16:51.058Z,89.96
2018-03-24T05:19:25.520Z,89.93
2018-03-24T05:21:59.055Z,89.89
2018-03-24T05:24:33.787Z,89.67
2018-03-24T05:27:07.686Z,89.48
2018-03-24T05:29:41.042Z,89.41
2018-03-24T05:32:14.620Z,89.56
2018-03-24T05:34:48.285Z,89.58
2018-03-24T05:37:21.759Z,89.46
2018-03-24T05:39:55.087Z,89.37
2018-03-24T05:42:28.189Z,89.21
2018-03-24T05:45:02.238Z,89.07
2018-03-24T05:47:35.323Z,88.77
2018-03-24T05:50:09.154Z,88.67
2018-03-24T05:52:42.294Z,88.31
2018-03-24T05:55:15.917Z,88.02
2018-03-24T05:57:49.216Z,87.77
2018-03-24T06:00:22.472Z,87.57
2018-03-24T06:02:56.063Z,87.29
2018-03-24T06:05:30.157Z,86.99
2018-03-24T06:08:04.059Z,86.40
2018-03-24T06:10:38.021Z,86.22
2018-03-24T06:13:11.659Z,85.98
2018-03-24T06:15:44.821Z,85.67
2018-03-24T06:18:18.051Z,85.35
2018-03-24T06:20:59.390Z,85.03
2018-03-24T06:23:39.719Z,84.70
2018-03-24T06:26:15.721Z,84.56
2018-03-24T06:28:52.356Z,84.12
2018-03-24T06:31:26.287Z,83.87
2018-03-24T06:33:59.674Z,83.83
2018-03-24T06:36:35.269Z,83.63
2018-03-24T06:39:08.864Z,83.44
2018-03-24T06:41:42.199Z,83.08
2018-03-24T06:44:16.265Z,82.96
2018-03-24T06:46:49.559Z,82.43
2018-03-24T06:49:22.680Z,82.28
2018-03-24T06:51:57.211Z,81.86
2018-03-24T06:54:30.619Z,81.46
2018-03-24T06:57:04.811Z,81.39
2018-03-24T06:59:38.316Z,80.73
2018-03-24T07:02:12.252Z,80.34
2018-03-24T07:04:45.950Z,79.57
2018-03-24T07:07:19.077Z,78.29
2018-03-24T07:09:52.295Z,78.27
2018-03-24T07:12:29.138Z,77.85
2018-03-24T07:15:42.132Z,77.73
2018-03-24T07:18:18.776Z,78.00
2018-03-24T07:20:54.588Z,77.94
2018-03-24T07:23:28.533Z,78.09
2018-03-24T07:26:01.819Z,77.94
2018-03-24T07:28:35.007Z,78.48
2018-03-24T07:31:08.794Z,78.41
2018-03-24T07:33:42.230Z,78.45
2018-03-24T07:36:16.924Z,77.86
2018-03-24T07:38:51.948Z,77.35
2018-03-24T07:41:25.470Z,77.14
2018-03-24T07:43:58.859Z,76.74
2018-03-24T07:46:32.465Z,76.23
2018-03-24T07:49:05.468Z,75.73
2018-03-24T07:51:40.918Z,75.25
2018-03-24T07:54:15.041Z,74.95
2018-03-24T07:56:48.201Z,75.03
2018-03-24T07:59:23.260Z,74.82
2018-03-24T08:01:56.538Z,73.96
2018-03-24T08:04:29.804Z,74.01
2018-03-24T08:07:04.352Z,73.60
2018-03-24T08:09:37.366Z,72.57
2018-03-24T08:12:10.611Z,71.14
2018-03-24T08:14:48.533Z,69.15
2018-03-24T08:17:21.688Z,67.84
2018-03-24T08:19:55.424Z,66.83
2018-03-24T08:22:32.836Z,65.52
2018-03-24T08:27:47.685Z,65.86
2018-03-24T08:30:21.113Z,64.84
2018-03-24T08:32:54.406Z,63.67
2018-03-24T08:35:29.950Z,62.64
2018-03-24T08:38:04.021Z,62.27
2018-03-24T08:40:37.628Z,62.51
2018-03-24T08:43:14.754Z,64.00
2018-03-24T08:45:52.310Z,64.44
2018-03-24T08:48:28.029Z,65.35
2018-03-24T08:51:13.260Z,65.77
2018-03-24T08:53:48.027Z,65.29
2018-03-24T08:56:23.262Z,66.09
2018-03-24T08:58:59.224Z,66.38
2018-03-24T09:01:44.833Z,65.45
2018-03-24T09:04:31.986Z,63.84
2018-03-24T09:07:11.248Z,65.26
2018-03-24T09:13:42.713Z,65.24
2018-03-24T09:16:23.916Z,64.29
2018-03-24T09:18:57.878Z,64.38
2018-03-24T09:21:35.253Z,61.62
2018-03-24T09:24:09.994Z,60.88
2018-03-24T09:26:45.382Z,60.25
2018-03-24T09:29:18.863Z,59.44
2018-03-24T09:31:56.302Z,60.93
2018-03-24T09:34:32.325Z,61.74
2018-03-24T09:37:06.682Z,61.77
2018-03-24T09:39:40.246Z,61.46
2018-03-24T09:42:13.950Z,58.88
2018-03-24T09:44:48.330Z,59.34
2018-03-24T09:47:23.231Z,58.12
2018-03-24T09:49:57.029Z,56.38
2018-03-24T09:52:30.062Z,56.62
2018-03-24T09:55:03.717Z,54.03
2018-03-24T09:57:38.290Z,50.89
2018-03-24T10:00:11.421Z,49.11
2018-03-24T10:02:44.549Z,48.10
2018-03-24T10:05:19.319Z,46.96
2018-03-24T10:08:06.648Z,47.69
2018-03-24T10:10:41.920Z,45.56
2018-03-24T10:13:15.450Z,44.01
2018-03-24T10:15:49.805Z,44.03
2018-03-24T10:18:23.189Z,44.80
2018-03-24T10:21:00.379Z,45.06
2018-03-24T10:23:34.161Z,44.42
2018-03-24T10:26:07.828Z,46.40
2018-03-24T10:28:42.790Z,46.62
2018-03-24T10:31:16.851Z,46.38
2018-03-24T10:33:54.616Z,43.13
2018-03-24T10:36:28.232Z,44.38
2018-03-24T10:39:02.497Z,45.74
2018-03-24T10:41:36.515Z,45.20
2018-03-24T10:44:10.328Z,42.25
2018-03-24T10:46:46.755Z,41.86
2018-03-24T10:50:49.315Z,45.52
2018-03-24T10:53:24.907Z,47.70
2018-03-24T10:55:59.051Z,47.95
2018-03-24T10:58:36.033Z,46.01
2018-03-24T11:01:14.437Z,44.72
2018-03-24T11:03:48.080Z,43.04
2018-03-24T11:06:21.324Z,43.51
2018-03-24T11:08:54.835Z,42.99
2018-03-24T11:11:28.438Z,42.83
2018-03-24T11:14:02.590Z,41.77
2018-03-24T11:16:36.035Z,42.55
2018-03-24T11:19:09.237Z,41.99
2018-03-24T11:21:43.086Z,43.22
2018-03-24T11:24:17.588Z,43.43
2018-03-24T11:26:51.025Z,42.65
2018-03-24T11:29:26.802Z,42.17
2018-03-24T11:32:01.811Z,41.46
2018-03-24T11:34:35.584Z,42.20
2018-03-24T11:37:10.389Z,42.18
2018-03-24T11:39:45.245Z,42.74
2018-03-24T11:42:19.072Z,42.34
2018-03-24T11:44:52.282Z,42.48
2018-03-24T11:47:27.120Z,43.31
2018-03-24T11:50:01.874Z,42.96
2018-03-24T11:52:36.440Z,43.53
2018-03-24T11:55:11.515Z,43.89
2018-03-24T11:57:45.646Z,44.08
2018-03-24T12:00:21.418Z,44.00
2018-03-24T12:02:55.405Z,44.11
2018-03-24T12:05:29.408Z,43.84
2018-03-24T12:08:21.036Z,43.80
2018-03-24T12:10:54.764Z,43.89
2018-03-24T12:13:28.881Z,44.80
2018-03-24T12:16:02.609Z,44.61
2018-03-24T12:18:36.153Z,44.14
2018-03-24T12:21:11.561Z,44.95
2018-03-24T12:23:45.824Z,43.52
2018-03-24T12:26:22.801Z,43.02
2018-03-24T12:28:56.847Z,43.61
2018-03-24T12:31:31.145Z,43.29
2018-03-24T12:34:05.969Z,43.71
2018-03-24T12:36:40.648Z,42.71
2018-03-24T12:39:14.062Z,43.72
2018-03-24T12:41:47.796Z,43.34
2018-03-24T12:44:21.103Z,42.98
2018-03-24T12:46:55.493Z,42.27
2018-03-24T12:49:28.704Z,42.75
2018-03-24T12:52:03.193Z,42.46
2018-03-24T12:54:36.775Z,42.21
2018-03-24T12:57:11.478Z,42.64
2018-03-24T12:59:45.918Z,42.82
2018-03-24T13:02:25.150Z,42.61
2018-03-24T13:05:01.576Z,43.36
2018-03-24T13:07:48.018Z,42.94
2018-03-24T13:10:43.102Z,42.41
2018-03-24T13:13:21.327Z,41.64
2018-03-24T13:15:58.714Z,42.64
2018-03-24T13:18:33.596Z,43.10
2018-03-24T13:21:07.152Z,43.79
2018-03-24T13:23:42.054Z,41.58
2018-03-24T13:26:18.956Z,41.37
2018-03-24T13:28:52.268Z,41.73
2018-03-24T13:31:42.858Z,42.24
2018-03-24T13:34:16.519Z,44.32
2018-03-24T13:36:51.851Z,43.98
2018-03-24T13:39:25.506Z,43.89
2018-03-24T13:42:00.017Z,43.52
2018-03-24T13:44:35.283Z,44.16
2018-03-24T13:47:11.211Z,43.22
2018-03-24T13:49:48.585Z,43.14
2018-03-24T13:52:22.949Z,43.61
2018-03-24T13:54:57.095Z,42.87
2018-03-24T13:57:30.523Z,42.66
2018-03-24T14:00:04.638Z,42.23
2018-03-24T14:02:38.839Z,42.26
2018-03-24T14:05:12.234Z,42.10
2018-03-24T14:07:48.119Z,41.86
2018-03-24T14:10:24.320Z,41.96
2018-03-24T14:12:58.006Z,41.59
2018-03-24T14:15:31.291Z,41.53
2018-03-24T14:18:04.694Z,42.31
2018-03-24T14:20:38.714Z,41.20
2018-03-24T14:23:12.133Z,41.30
2018-03-24T14:25:45.693Z,41.14
2018-03-24T14:28:20.770Z,41.85
2018-03-24T14:30:54.235Z,41.45
2018-03-24T14:33:29.089Z,41.15
2018-03-24T14:36:03.708Z,40.74
2018-03-24T14:38:36.859Z,40.73
2018-03-24T14:41:11.236Z,41.04
2018-03-24T14:43:44.952Z,41.89
2018-03-24T14:46:18.530Z,42.68
2018-03-24T14:48:53.598Z,43.46
2018-03-24T14:51:27.116Z,42.92
2018-03-24T14:54:01.835Z,42.58
2018-03-24T14:56:36.953Z,42.26
2018-03-24T14:59:12.437Z,41.15
2018-03-24T15:01:46.122Z,42.01
2018-03-24T15:04:20.741Z,41.03
2018-03-24T15:06:54.412Z,41.92
2018-03-24T15:09:27.518Z,41.12
2018-03-24T15:12:00.703Z,41.47
2018-03-24T15:14:34.686Z,42.14
2018-03-24T15:17:07.838Z,41.68
2018-03-24T15:19:42.419Z,41.44
2018-03-24T15:22:17.016Z,41.81
2018-03-24T15:24:50.622Z,41.85
2018-03-24T15:27:24.541Z,42.47
2018-03-24T15:30:12.759Z,42.73
2018-03-24T15:32:53.692Z,43.24
2018-03-24T15:38:32.161Z,43.61
2018-03-24T15:41:05.984Z,44.03
2018-03-24T15:43:39.944Z,44.11
2018-03-24T15:46:15.451Z,44.29
2018-03-24T15:48:50.382Z,43.70
2018-03-24T15:51:24.735Z,43.79
2018-03-24T15:54:00.133Z,44.35
2018-03-24T15:56:35.370Z,44.93
2018-03-24T15:59:09.571Z,44.83
2018-03-24T16:01:42.982Z,44.77
2018-03-24T16:04:18.311Z,45.30
2018-03-24T16:06:52.585Z,45.70
2018-03-24T16:09:27.471Z,46.88
2018-03-24T16:12:03.768Z,47.95
2018-03-24T16:14:38.149Z,47.84
2018-03-24T16:17:12.459Z,47.78
2018-03-24T16:19:47.965Z,47.30
2018-03-24T16:22:26.978Z,47.73
2018-03-24T16:25:01.584Z,48.46
2018-03-24T16:27:35.908Z,48.19
2018-03-24T16:30:10.331Z,47.96
2018-03-24T16:32:45.686Z,48.25
2018-03-24T16:35:19.070Z,48.97
2018-03-24T16:37:52.649Z,49.21
2018-03-24T16:40:26.083Z,49.64
2018-03-24T16:43:00.053Z,49.93
2018-03-24T16:45:35.172Z,49.56
2018-03-24T16:48:10.643Z,50.09
2018-03-24T16:50:45.317Z,49.70
2018-03-24T16:53:21.703Z,49.88
2018-03-24T16:55:58.354Z,50.58
2018-03-24T16:58:32.793Z,50.72
2018-03-24T17:01:07.044Z,51.35
2018-03-24T17:03:40.713Z,52.55
2018-03-24T17:06:18.457Z,52.72
2018-03-24T17:08:52.980Z,52.72
2018-03-24T17:11:27.809Z,53.04
2018-03-24T17:14:01.399Z,53.13
2018-03-24T17:16:35.513Z,53.16
2018-03-24T17:19:10.903Z,53.95
2018-03-24T17:21:44.223Z,53.82
2018-03-24T17:24:18.740Z,54.91
2018-03-24T17:26:54.142Z,53.80
2018-03-24T17:29:29.056Z,53.54
2018-03-24T17:32:02.721Z,54.03
2018-03-24T17:34:36.850Z,54.32
2018-03-24T17:37:12.827Z,53.87
2018-03-24T17:39:46.364Z,54.45
2018-03-24T17:42:19.887Z,54.84
2018-03-24T17:44:54.217Z,54.75
2018-03-24T17:47:27.729Z,54.92
2018-03-24T17:50:01.613Z,56.24
2018-03-24T17:52:36.916Z,56.48
2018-03-24T17:55:12.131Z,57.37
2018-03-24T17:57:45.316Z,57.47
2018-03-24T18:00:19.092Z,57.15
2018-03-24T18:02:53.197Z,56.56
2018-03-24T18:05:27.145Z,56.89
2018-03-24T18:08:01.571Z,56.95
2018-03-24T18:10:36.651Z,56.86
2018-03-24T18:13:10.228Z,56.91
2018-03-24T18:15:43.712Z,57.08
2018-03-24T18:18:17.692Z,57.39
2018-03-24T18:20:52.490Z,57.05
2018-03-24T18:23:25.767Z,58.58
2018-03-24T18:25:59.200Z,59.48
2018-03-24T18:28:32.832Z,58.42
2018-03-24T18:31:08.346Z,60.72
2018-03-24T18:33:43.376Z,62.36
2018-03-24T18:36:20.792Z,63.08
2018-03-24T18:38:58.527Z,65.01
2018-03-24T18:41:34.512Z,65.64
2018-03-24T18:44:08.228Z,66.44
2018-03-24T18:46:41.974Z,65.99
2018-03-24T18:49:16.585Z,66.81
2018-03-24T18:51:49.805Z,66.41
2018-03-24T18:54:24.620Z,67.14
2018-03-24T18:56:59.186Z,67.06
2018-03-24T18:59:33.284Z,67.16
2018-03-24T19:02:06.392Z,66.76
2018-03-24T19:04:40.080Z,67.11
2018-03-24T19:07:13.195Z,67.18
2018-03-24T19:09:47.711Z,67.45
2018-03-24T19:12:22.362Z,67.79
2018-03-24T19:14:57.397Z,68.22
2018-03-24T19:17:35.367Z,69.11
2018-03-24T19:20:09.084Z,68.75
2018-03-24T19:22:43.161Z,68.78
2018-03-24T19:25:17.150Z,69.31
2018-03-24T19:27:51.143Z,69.30
2018-03-24T19:30:25.037Z,69.99
2018-03-24T19:32:59.148Z,69.67
2018-03-24T19:35:33.684Z,69.93
2018-03-24T19:38:07.324Z,70.48
2018-03-24T19:40:40.711Z,70.27
2018-03-24T19:43:13.974Z,70.73
2018-03-24T19:45:48.066Z,70.83
2018-03-24T19:48:29.586Z,71.25
2018-03-24T19:51:03.459Z,71.41
2018-03-24T19:53:37.098Z,71.66
2018-03-24T19:56:10.520Z,71.52
2018-03-24T19:58:43.635Z,71.55
2018-03-24T20:01:16.835Z,71.61
2018-03-24T20:03:51.292Z,72.04
2018-03-24T20:06:25.424Z,71.80
2018-03-24T20:09:00.115Z,72.12
2018-03-24T20:11:33.836Z,72.24
2018-03-24T20:14:07.019Z,72.43
2018-03-24T20:16:41.536Z,72.47
2018-03-24T20:19:14.812Z,72.47
2018-03-24T20:21:50.082Z,72.44
2018-03-24T20:24:29.656Z,72.60
2018-03-24T20:27:03.399Z,72.82
2018-03-24T20:29:36.659Z,72.73
2018-03-24T20:32:10.050Z,73.02
2018-03-24T20:34:43.883Z,72.75
2018-03-24T20:37:16.957Z,72.93
2018-03-24T20:39:50.736Z,73.01
2018-03-24T20:42:24.356Z,73.25
2018-03-24T20:44:58.284Z,72.98
2018-03-24T20:47:31.862Z,73.10
2018-03-24T20:50:06.902Z,72.90
2018-03-24T20:52:40.774Z,72.86
2018-03-24T20:55:14.821Z,73.24
2018-03-24T20:57:48.497Z,73.22
2018-03-24T21:00:22.192Z,73.15
2018-03-24T21:02:56.277Z,73.55
2018-03-24T21:05:30.128Z,73.74
2018-03-24T21:08:03.539Z,73.82
2018-03-24T21:10:38.193Z,73.00
2018-03-24T21:13:11.812Z,73.30
2018-03-24T21:15:45.555Z,73.34
2018-03-24T21:18:20.683Z,73.53
2018-03-24T21:21:07.194Z,73.70
2018-03-24T21:23:42.293Z,74.07
2018-03-24T21:26:15.835Z,74.08
2018-03-24T21:28:49.496Z,74.64
2018-03-24T21:31:22.746Z,74.77
2018-03-24T21:33:56.039Z,74.55
2018-03-24T21:36:29.353Z,74.77
2018-03-24T21:39:05.888Z,75.37
2018-03-24T21:41:39.782Z,75.38
2018-03-24T21:44:12.898Z,75.58
2018-03-24T21:46:46.123Z,75.58
2018-03-24T21:49:19.372Z,75.67
2018-03-24T21:51:52.806Z,75.91
2018-03-24T21:54:29.551Z,76.08
2018-03-24T21:57:05.901Z,75.82
2018-03-24T21:59:39.845Z,75.93
2018-03-24T22:02:15.208Z,76.21
2018-03-24T22:04:49.655Z,76.68
2018-03-24T22:07:25.572Z,77.02
2018-03-24T22:10:00.878Z,77.32
2018-03-24T22:12:36.190Z,77.35
2018-03-24T22:15:12.947Z,77.30
2018-03-24T22:17:48.732Z,76.99
2018-03-24T22:20:24.502Z,77.05
2018-03-24T22:22:59.057Z,76.86
2018-03-24T22:25:32.789Z,76.88
2018-03-24T22:28:06.531Z,77.34
2018-03-24T22:30:39.477Z,77.20
2018-03-24T22:33:13.009Z,76.88
2018-03-24T22:35:47.675Z,76.60
2018-03-24T22:38:21.052Z,76.91
2018-03-24T22:40:54.160Z,77.35
2018-03-24T22:43:27.343Z,77.48
2018-03-24T22:46:01.840Z,77.57
2018-03-24T22:48:34.795Z,77.65
2018-03-24T22:51:09.485Z,77.47
2018-03-24T22:53:42.556Z,77.64
2018-03-24T22:56:15.403Z,77.13
2018-03-24T22:58:48.700Z,77.13
2018-03-24T23:01:22.037Z,77.40
2018-03-24T23:03:54.919Z,77.50
2018-03-24T23:06:28.562Z,77.73
2018-03-24T23:09:02.273Z,77.92
2018-03-24T23:11:35.313Z,77.86
2018-03-24T23:14:08.310Z,77.92
2018-03-24T23:16:41.355Z,77.75
2018-03-24T23:19:14.711Z,78.01
2018-03-24T23:21:47.781Z,78.03
2018-03-24T23:24:20.761Z,78.38
2018-03-24T23:26:54.681Z,78.17
2018-03-24T23:29:27.720Z,78.48
2018-03-24T23:32:00.846Z,78.13
2018-03-24T23:34:34.089Z,78.30
2018-03-24T23:37:07.152Z,78.33
2018-03-24T23:39:40.588Z,78.61
2018-03-24T23:42:14.660Z,78.75
2018-03-24T23:44:47.706Z,78.89
2018-03-24T23:47:21.172Z,79.06
2018-03-24T23:49:55.232Z,79.21
2018-03-24T23:52:28.615Z,79.22
2018-03-24T23:55:03.647Z,79.20
2018-03-24T23:57:37.208Z,79.20
